createdAt,value
2023-10-26T00:01:11.348Z,10.66
2023-10-26T00:03:28.432Z,10.69
2023-10-26T00:05:45.366Z,10.74
2023-10-26T00:08:02.331Z,10.70
2023-10-26T00:10:19.655Z,10.73
2023-10-26T00:12:36.612Z,10.71
2023-10-26T00:14:53.534Z,10.69
2023-10-26T00:17:10.520Z,10.67
2023-10-26T00:19:28.565Z,10.63
2023-10-26T00:21:45.544Z,10.63
2023-10-26T00:24:02.443Z,10.60
2023-10-26T00:26:19.346Z,10.64
2023-10-26T00:28:36.255Z,10.62
2023-10-26T00:30:53.209Z,10.62
2023-10-26T00:33:10.389Z,10.59
2023-10-26T00:35:27.457Z,10.62
2023-10-26T00:37:44.410Z,10.60
2023-10-26T00:40:01.318Z,10.58
2023-10-26T00:42:18.845Z,10.56
2023-10-26T00:44:35.903Z,10.61
2023-10-26T00:46:52.786Z,10.59
2023-10-26T00:49:09.790Z,10.56
2023-10-26T00:51:26.707Z,10.53
2023-10-26T00:53:43.636Z,10.56
2023-10-26T00:56:00.590Z,10.52
2023-10-26T00:58:17.612Z,10.51
2023-10-26T01:00:34.512Z,10.50
2023-10-26T01:02:51.490Z,10.57
2023-10-26T01:05:08.471Z,10.57
2023-10-26T01:07:25.773Z,10.53
2023-10-26T01:09:42.722Z,10.54
2023-10-26T01:11:59.757Z,10.52
2023-10-26T01:14:16.757Z,10.50
2023-10-26T01:16:33.752Z,10.52
2023-10-26T01:18:50.776Z,10.51
2023-10-26T01:21:07.881Z,10.49
2023-10-26T01:23:24.782Z,10.47
2023-10-26T01:25:41.648Z,10.47
2023-10-26T01:27:59.103Z,10.47
2023-10-26T01:30:16.426Z,10.46
2023-10-26T01:32:33.357Z,10.46
2023-10-26T01:34:50.269Z,10.45
2023-10-26T01:37:07.269Z,10.43
2023-10-26T01:39:24.230Z,10.42
2023-10-26T01:41:41.277Z,10.41
2023-10-26T01:43:58.155Z,10.44
2023-10-26T01:46:15.064Z,10.45
2023-10-26T01:48:32.116Z,10.44
2023-10-26T01:50:49.154Z,10.44
2023-10-26T01:53:06.030Z,10.46
2023-10-26T01:55:23.055Z,10.47
2023-10-26T01:57:40.106Z,10.45
2023-10-26T01:59:57.165Z,10.43
2023-10-26T02:02:14.681Z,10.42
2023-10-26T02:04:31.600Z,10.42
2023-10-26T02:06:48.993Z,10.42
2023-10-26T02:09:06.610Z,10.40
2023-10-26T02:11:24.281Z,10.39
2023-10-26T02:13:41.178Z,10.38
2023-10-26T02:15:58.187Z,10.36
2023-10-26T02:18:15.201Z,10.33
2023-10-26T02:20:32.280Z,10.33
2023-10-26T02:22:49.183Z,10.33
2023-10-26T02:25:06.090Z,10.32
2023-10-26T02:27:23.142Z,10.35
2023-10-26T02:29:40.174Z,10.34
2023-10-26T02:31:57.048Z,10.31
2023-10-26T02:34:13.941Z,10.31
2023-10-26T02:36:30.922Z,10.29
2023-10-26T02:38:48.170Z,10.29
2023-10-26T02:41:05.230Z,10.28
2023-10-26T02:43:22.146Z,10.25
2023-10-26T02:45:39.094Z,10.22
2023-10-26T02:47:56.043Z,10.19
2023-10-26T02:50:13.310Z,10.15
2023-10-26T02:52:30.364Z,10.09
2023-10-26T02:54:47.326Z,10.03
2023-10-26T02:57:06.454Z,9.97
2023-10-26T02:59:23.389Z,9.95
2023-10-26T03:01:40.307Z,9.91
2023-10-26T03:03:57.448Z,9.85
2023-10-26T03:06:14.394Z,9.76
2023-10-26T03:08:31.294Z,9.72
2023-10-26T03:10:48.558Z,9.69
2023-10-26T03:13:05.486Z,9.60
2023-10-26T03:15:22.489Z,9.53
2023-10-26T03:17:39.875Z,9.48
2023-10-26T03:19:56.876Z,9.42
2023-10-26T03:22:13.819Z,9.34
2023-10-26T03:24:30.851Z,9.29
2023-10-26T03:26:47.872Z,9.21
2023-10-26T03:29:04.805Z,9.12
2023-10-26T03:31:22.103Z,9.03
2023-10-26T03:33:39.066Z,8.98
2023-10-26T03:35:56.034Z,8.94
2023-10-26T03:38:12.906Z,8.93
2023-10-26T03:40:30.070Z,8.94
2023-10-26T03:42:47.159Z,8.96
2023-10-26T03:45:04.075Z,8.99
2023-10-26T03:47:20.976Z,9.01
2023-10-26T03:49:37.903Z,9.01
2023-10-26T03:51:54.927Z,9.03
2023-10-26T03:54:12.000Z,9.04
2023-10-26T03:56:28.904Z,9.04
2023-10-26T03:58:45.818Z,9.07
2023-10-26T04:01:02.704Z,9.10
2023-10-26T04:03:20.105Z,9.12
2023-10-26T04:05:37.599Z,9.13
2023-10-26T04:07:54.514Z,9.14
2023-10-26T04:10:11.390Z,9.13
2023-10-26T04:12:28.808Z,9.14
2023-10-26T04:14:46.077Z,9.05
2023-10-26T04:17:03.429Z,8.98
2023-10-26T04:19:20.324Z,8.94
2023-10-26T04:21:37.198Z,8.84
2023-10-26T04:23:54.296Z,8.81
2023-10-26T04:26:11.303Z,8.79
2023-10-26T04:28:28.170Z,8.78
2023-10-26T04:30:45.054Z,8.79
2023-10-26T04:33:02.013Z,8.80
2023-10-26T04:35:19.084Z,8.78
2023-10-26T04:37:36.423Z,8.77
2023-10-26T04:39:53.330Z,8.78
2023-10-26T04:42:10.258Z,8.74
2023-10-26T04:44:27.219Z,8.71
2023-10-26T04:46:44.313Z,8.67
2023-10-26T04:49:01.186Z,8.66
2023-10-26T04:51:18.114Z,8.63
2023-10-26T04:53:35.034Z,8.60
2023-10-26T04:55:52.366Z,8.61
2023-10-26T04:58:09.243Z,8.63
2023-10-26T05:00:26.131Z,8.63
2023-10-26T05:02:43.122Z,8.62
2023-10-26T05:05:00.064Z,8.61
2023-10-26T05:07:16.960Z,8.61
2023-10-26T05:09:33.843Z,8.60
2023-10-26T05:11:51.255Z,8.59
2023-10-26T05:14:08.171Z,8.53
2023-10-26T05:16:25.486Z,8.48
2023-10-26T05:18:42.975Z,8.39
2023-10-26T05:21:00.474Z,8.33
2023-10-26T05:23:17.837Z,8.26
2023-10-26T05:25:34.742Z,8.20
2023-10-26T05:27:52.105Z,8.14
2023-10-26T05:30:09.182Z,8.07
2023-10-26T05:32:26.315Z,8.06
2023-10-26T05:34:43.555Z,8.00
2023-10-26T05:37:00.639Z,7.94
2023-10-26T05:39:17.619Z,7.90
2023-10-26T05:41:34.677Z,7.87
2023-10-26T05:43:51.627Z,7.85
2023-10-26T05:46:09.145Z,7.83
2023-10-26T05:48:26.520Z,7.80
2023-10-26T05:50:43.489Z,7.74
2023-10-26T05:53:00.531Z,7.70
2023-10-26T05:55:17.449Z,7.63
2023-10-26T05:57:34.381Z,7.59
2023-10-26T05:59:51.361Z,7.57
2023-10-26T06:02:08.411Z,7.53
2023-10-26T06:04:25.311Z,7.51
2023-10-26T06:06:42.208Z,7.51
2023-10-26T06:08:59.628Z,7.54
2023-10-26T06:11:17.155Z,7.49
2023-10-26T06:13:34.518Z,7.43
2023-10-26T06:15:51.404Z,7.39
2023-10-26T06:18:08.796Z,7.38
2023-10-26T06:20:26.286Z,7.34
2023-10-26T06:22:44.368Z,7.31
2023-10-26T06:25:01.505Z,7.30
2023-10-26T06:27:18.830Z,7.29
2023-10-26T06:29:36.396Z,7.25
2023-10-26T06:31:53.298Z,7.18
2023-10-26T06:34:10.652Z,7.17
2023-10-26T06:36:27.610Z,7.16
2023-10-26T06:38:45.025Z,7.13
2023-10-26T06:41:01.925Z,7.10
2023-10-26T06:43:18.901Z,7.13
2023-10-26T06:45:35.837Z,7.17
2023-10-26T06:47:54.164Z,7.19
2023-10-26T06:50:11.132Z,7.20
2023-10-26T06:52:28.056Z,7.19
2023-10-26T06:54:45.167Z,7.19
2023-10-26T06:57:02.251Z,7.20
2023-10-26T06:59:19.287Z,7.21
2023-10-26T07:02:09.071Z,7.19
2023-10-26T07:04:13.121Z,7.21
2023-10-26T07:06:30.281Z,7.25
2023-10-26T07:08:48.907Z,7.28
2023-10-26T07:11:07.283Z,7.34
2023-10-26T07:13:24.182Z,7.36
2023-10-26T07:15:41.079Z,7.43
2023-10-26T07:17:58.079Z,7.49
2023-10-26T07:20:15.020Z,7.49
2023-10-26T07:22:31.900Z,7.49
2023-10-26T07:24:48.752Z,7.51
2023-10-26T07:27:05.814Z,7.53
2023-10-26T07:29:22.730Z,7.58
2023-10-26T07:31:39.848Z,7.60
2023-10-26T07:33:56.824Z,7.63
2023-10-26T07:36:13.788Z,7.65
2023-10-26T07:38:34.667Z,7.68
2023-10-26T07:40:53.197Z,7.72
2023-10-26T07:43:10.178Z,7.72
2023-10-26T07:45:27.348Z,7.72
2023-10-26T07:47:44.358Z,7.73
2023-10-26T07:50:01.312Z,7.73
2023-10-26T07:52:18.272Z,7.74
2023-10-26T07:54:35.180Z,7.78
2023-10-26T07:56:52.213Z,7.82
2023-10-26T07:59:09.047Z,7.87
2023-10-26T08:01:25.998Z,7.94
2023-10-26T08:03:42.937Z,8.00
2023-10-26T08:06:00.312Z,8.06
2023-10-26T08:08:17.203Z,8.12
2023-10-26T08:10:34.133Z,8.16
2023-10-26T08:12:51.039Z,8.24
2023-10-26T08:16:28.392Z,8.35
2023-10-26T08:17:45.070Z,8.41
2023-10-26T08:20:02.353Z,8.44
2023-10-26T08:22:19.668Z,8.50
2023-10-26T08:24:36.585Z,8.56
2023-10-26T08:26:53.488Z,8.63
2023-10-26T08:29:18.683Z,8.72
2023-10-26T08:31:38.553Z,8.79
2023-10-26T08:33:55.524Z,8.86
2023-10-26T08:36:12.388Z,8.94
2023-10-26T08:38:29.238Z,9.00
2023-10-26T08:40:46.169Z,9.01
2023-10-26T08:43:03.079Z,9.07
2023-10-26T08:45:20.092Z,9.11
2023-10-26T08:47:37.052Z,9.20
2023-10-26T08:50:08.111Z,9.28
2023-10-26T08:52:30.897Z,9.33
2023-10-26T08:54:47.835Z,9.35
2023-10-26T08:57:04.769Z,9.38
2023-10-26T08:59:22.412Z,9.37
2023-10-26T09:01:39.602Z,9.35
2023-10-26T09:03:56.687Z,9.36
2023-10-26T09:06:13.798Z,9.40
2023-10-26T09:08:30.719Z,9.41
2023-10-26T09:10:47.670Z,9.46
2023-10-26T09:13:04.660Z,9.42
2023-10-26T09:15:21.648Z,9.42
2023-10-26T09:17:38.686Z,9.44
2023-10-26T09:19:55.782Z,9.46
2023-10-26T09:22:14.002Z,9.45
2023-10-26T09:24:31.234Z,9.45
2023-10-26T09:26:48.250Z,9.47
2023-10-26T09:29:05.409Z,9.48
2023-10-26T09:31:22.366Z,9.49
2023-10-26T09:33:39.526Z,9.53
2023-10-26T09:35:56.494Z,9.63
2023-10-26T09:38:13.543Z,9.69
2023-10-26T09:40:30.503Z,9.77
2023-10-26T09:42:47.883Z,9.84
2023-10-26T09:45:04.887Z,9.92
2023-10-26T09:47:23.247Z,9.94
2023-10-26T09:49:41.765Z,9.99
2023-10-26T09:51:58.783Z,10.07
2023-10-26T09:54:15.882Z,10.15
2023-10-26T09:56:32.827Z,10.27
2023-10-26T09:58:50.110Z,10.35
2023-10-26T10:01:07.309Z,10.50
2023-10-26T10:03:24.281Z,10.60
2023-10-26T10:05:41.242Z,10.71
2023-10-26T10:07:58.105Z,10.87
2023-10-26T10:10:15.464Z,10.98
2023-10-26T10:12:32.485Z,11.05
2023-10-26T10:14:54.569Z,11.06
2023-10-26T10:17:13.115Z,11.08
2023-10-26T10:19:31.644Z,11.06
2023-10-26T10:21:50.607Z,11.06
2023-10-26T10:24:07.682Z,11.01
2023-10-26T10:26:27.242Z,10.96
2023-10-26T10:28:44.907Z,10.95
2023-10-26T10:31:01.898Z,10.90
2023-10-26T10:33:18.999Z,10.87
2023-10-26T10:35:36.447Z,10.83
2023-10-26T10:37:53.332Z,10.77
2023-10-26T10:40:10.310Z,10.73
2023-10-26T10:42:27.363Z,10.70
2023-10-26T10:44:44.523Z,10.67
2023-10-26T10:49:36.530Z,10.69
2023-10-26T10:51:54.124Z,10.69
2023-10-26T10:54:24.159Z,10.67
2023-10-26T10:56:47.521Z,10.66
2023-10-26T10:59:04.603Z,10.62
2023-10-26T11:01:21.667Z,10.57
2023-10-26T11:03:38.711Z,10.59
2023-10-26T11:05:55.742Z,10.63
2023-10-26T11:08:12.797Z,10.72
2023-10-26T11:10:29.750Z,10.76
2023-10-26T11:12:46.772Z,10.84
2023-10-26T11:15:03.774Z,10.93
2023-10-26T11:17:21.203Z,10.98
2023-10-26T11:19:38.450Z,11.05
2023-10-26T11:21:55.401Z,11.13
2023-10-26T11:24:12.559Z,11.20
2023-10-26T11:26:29.537Z,11.26
2023-10-26T11:28:46.509Z,11.29
2023-10-26T11:31:03.540Z,11.33
2023-10-26T11:33:20.913Z,11.40
2023-10-26T11:35:37.790Z,11.45
2023-10-26T11:37:54.745Z,11.54
2023-10-26T11:40:11.753Z,11.61
2023-10-26T11:42:31.355Z,11.66
2023-10-26T11:44:48.352Z,11.73
2023-10-26T11:47:05.303Z,11.76
2023-10-26T11:49:23.274Z,11.76
2023-10-26T11:51:44.842Z,11.79
2023-10-26T11:54:07.669Z,11.81
2023-10-26T11:56:25.593Z,11.86
2023-10-26T12:00:59.453Z,11.95
2023-10-26T12:03:19.203Z,11.98
2023-10-26T12:05:36.179Z,11.98
2023-10-26T12:07:55.719Z,11.93
2023-10-26T12:10:12.660Z,11.92
2023-10-26T12:12:30.005Z,11.94
2023-10-26T12:14:47.251Z,11.89
2023-10-26T12:17:04.163Z,11.92
2023-10-26T12:19:21.115Z,11.91
2023-10-26T12:21:38.664Z,11.89
2023-10-26T12:23:55.840Z,11.91
2023-10-26T12:26:12.771Z,11.90
2023-10-26T12:28:30.785Z,11.88
2023-10-26T12:30:47.990Z,11.86
2023-10-26T12:33:05.166Z,11.82
2023-10-26T12:35:22.129Z,11.86
2023-10-26T12:37:39.170Z,11.81
2023-10-26T12:39:56.252Z,11.78
2023-10-26T12:42:13.660Z,11.78
2023-10-26T12:44:30.569Z,11.76
2023-10-26T12:46:47.556Z,11.71
2023-10-26T12:49:04.557Z,11.71
2023-10-26T12:51:21.550Z,11.68
2023-10-26T12:53:38.551Z,11.68
2023-10-26T12:55:55.422Z,11.64
2023-10-26T12:58:13.510Z,11.66
2023-10-26T13:00:32.616Z,11.65
2023-10-26T13:02:49.876Z,11.62
2023-10-26T13:05:07.348Z,11.61
2023-10-26T13:07:24.396Z,11.60
2023-10-26T13:09:41.528Z,11.61
2023-10-26T13:11:59.831Z,11.60
2023-10-26T13:14:17.916Z,11.62
2023-10-26T13:16:50.429Z,11.65
2023-10-26T13:19:15.352Z,11.64
2023-10-26T13:21:32.433Z,11.66
2023-10-26T13:23:51.826Z,11.66
2023-10-26T13:26:09.002Z,11.65
2023-10-26T13:28:25.970Z,11.65
2023-10-26T13:30:43.070Z,11.66
2023-10-26T13:33:00.047Z,11.66
2023-10-26T13:35:17.085Z,11.67
2023-10-26T13:37:34.325Z,11.69
2023-10-26T13:39:51.286Z,11.70
2023-10-26T13:42:08.779Z,11.71
2023-10-26T13:44:26.127Z,11.69
2023-10-26T13:46:43.229Z,11.69
2023-10-26T13:49:00.202Z,11.70
2023-10-26T13:51:18.308Z,11.69
2023-10-26T13:53:35.279Z,11.69
2023-10-26T13:55:52.354Z,11.70
2023-10-26T13:58:10.290Z,11.74
2023-10-26T14:00:27.203Z,11.75
2023-10-26T14:02:44.118Z,11.76
2023-10-26T14:05:01.277Z,11.78
2023-10-26T14:07:18.988Z,11.78
2023-10-26T14:09:35.984Z,11.81
2023-10-26T14:11:52.987Z,11.84
2023-10-26T14:14:10.373Z,11.85
2023-10-26T14:16:30.403Z,11.86
2023-10-26T14:18:48.722Z,11.87
2023-10-26T14:21:05.864Z,11.87
2023-10-26T14:23:22.767Z,11.86
2023-10-26T14:25:45.450Z,11.86
2023-10-26T14:28:02.373Z,11.83
2023-10-26T14:30:19.502Z,11.85
2023-10-26T14:32:36.508Z,11.82
2023-10-26T14:34:53.740Z,11.83
2023-10-26T14:37:11.101Z,11.83
2023-10-26T14:39:28.136Z,11.82
2023-10-26T14:41:45.456Z,11.83
2023-10-26T14:44:02.370Z,11.82
2023-10-26T14:46:19.869Z,11.82
2023-10-26T14:48:36.974Z,11.82
2023-10-26T14:50:53.954Z,11.81
2023-10-26T14:53:10.978Z,11.80
2023-10-26T14:55:27.934Z,11.82
2023-10-26T14:57:45.104Z,11.80
2023-10-26T15:00:03.215Z,11.79
2023-10-26T15:02:20.163Z,11.79
2023-10-26T15:04:37.517Z,11.77
2023-10-26T15:06:58.584Z,11.75
2023-10-26T15:10:21.031Z,11.73
2023-10-26T15:11:56.967Z,11.73
2023-10-26T15:14:15.567Z,11.71
2023-10-26T15:16:32.576Z,11.71
2023-10-26T15:18:50.170Z,11.72
2023-10-26T15:21:07.227Z,11.73
2023-10-26T15:23:24.231Z,11.71
2023-10-26T15:25:41.179Z,11.72
2023-10-26T15:27:59.668Z,11.70
2023-10-26T15:30:17.769Z,11.69
2023-10-26T15:32:37.805Z,11.69
2023-10-26T15:34:54.795Z,11.68
2023-10-26T15:37:11.779Z,11.65
2023-10-26T15:39:31.325Z,11.65
2023-10-26T15:41:48.485Z,11.63
2023-10-26T15:44:05.578Z,11.63
2023-10-26T15:46:22.671Z,11.62
2023-10-26T15:49:32.369Z,11.63
2023-10-26T15:51:17.739Z,11.60
2023-10-26T15:53:34.684Z,11.59
2023-10-26T15:55:52.436Z,11.57
2023-10-26T15:58:09.532Z,11.57
2023-10-26T16:00:26.538Z,11.56
2023-10-26T16:02:44.647Z,11.54
2023-10-26T16:05:01.831Z,11.55
2023-10-26T16:07:18.830Z,11.52
2023-10-26T16:09:37.330Z,11.52
2023-10-26T16:11:54.613Z,11.50
2023-10-26T16:14:11.669Z,11.44
2023-10-26T16:16:29.264Z,11.39
2023-10-26T16:18:46.849Z,11.35
2023-10-26T16:21:03.920Z,11.33
2023-10-26T16:23:20.909Z,11.30
2023-10-26T16:25:37.786Z,11.30
2023-10-26T16:27:54.765Z,11.31
2023-10-26T16:30:11.668Z,11.29
2023-10-26T16:32:28.688Z,11.29
2023-10-26T16:34:46.219Z,11.28
2023-10-26T16:37:03.241Z,11.28
2023-10-26T16:39:20.278Z,11.27
2023-10-26T16:41:37.309Z,11.27
2023-10-26T16:43:54.218Z,11.25
2023-10-26T16:46:13.350Z,11.26
2023-10-26T16:48:30.544Z,11.27
2023-10-26T16:50:47.625Z,11.26
2023-10-26T16:53:10.272Z,11.26
2023-10-26T16:55:32.931Z,11.26
2023-10-26T16:57:49.947Z,11.25
2023-10-26T17:00:07.020Z,11.24
2023-10-26T17:02:23.948Z,11.23
2023-10-26T17:04:40.899Z,11.22
2023-10-26T17:07:00.392Z,11.21
2023-10-26T17:09:17.404Z,11.16
2023-10-26T17:11:34.380Z,11.13
2023-10-26T17:13:51.265Z,11.09
2023-10-26T17:16:08.272Z,10.97
2023-10-26T17:18:26.286Z,10.90
2023-10-26T17:20:43.361Z,10.88
2023-10-26T17:23:00.306Z,10.79
2023-10-26T17:25:17.286Z,10.76
2023-10-26T17:27:34.213Z,10.72
2023-10-26T17:29:51.217Z,10.68
2023-10-26T17:32:08.142Z,10.66
2023-10-26T17:34:25.233Z,10.67
2023-10-26T17:36:42.185Z,10.63
2023-10-26T17:38:59.800Z,10.61
2023-10-26T17:41:16.717Z,10.59
2023-10-26T17:43:33.627Z,10.54
2023-10-26T17:45:50.837Z,10.51
2023-10-26T17:48:07.887Z,10.53
2023-10-26T17:50:24.886Z,10.46
2023-10-26T17:52:41.996Z,10.45
2023-10-26T17:55:00.484Z,10.41
2023-10-26T17:57:19.702Z,10.37
2023-10-26T17:59:36.648Z,10.33
2023-10-26T18:01:53.640Z,10.35
2023-10-26T18:04:10.648Z,10.34
2023-10-26T18:06:27.604Z,10.29
2023-10-26T18:08:44.601Z,10.28
2023-10-26T18:11:01.528Z,10.27
2023-10-26T18:13:18.471Z,10.22
2023-10-26T18:15:35.374Z,10.19
2023-10-26T18:17:52.357Z,10.17
2023-10-26T18:20:09.355Z,10.18
2023-10-26T18:22:26.459Z,10.17
2023-10-26T18:24:43.399Z,10.13
2023-10-26T18:27:00.367Z,10.10
2023-10-26T18:29:17.277Z,10.08
2023-10-26T18:31:34.332Z,10.03
2023-10-26T18:33:51.335Z,9.97
2023-10-26T18:36:08.269Z,9.95
2023-10-26T18:38:25.218Z,9.93
2023-10-26T18:40:42.179Z,9.87
2023-10-26T18:42:59.175Z,9.84
2023-10-26T18:45:16.135Z,9.79
2023-10-26T18:47:34.149Z,9.77
2023-10-26T18:49:51.167Z,9.72
2023-10-26T18:52:10.483Z,9.66
2023-10-26T18:54:27.493Z,9.64
2023-10-26T18:56:46.785Z,9.61
2023-10-26T18:59:03.827Z,9.60
2023-10-26T19:01:22.671Z,9.60
2023-10-26T19:03:53.753Z,9.60
2023-10-26T19:06:22.477Z,9.62
2023-10-26T19:08:39.441Z,9.63
2023-10-26T19:10:56.953Z,9.63
2023-10-26T19:13:14.186Z,9.62
2023-10-26T19:15:31.290Z,9.64
2023-10-26T19:17:48.222Z,9.65
2023-10-26T19:20:05.189Z,9.67
2023-10-26T19:22:22.124Z,9.68
2023-10-26T19:24:39.284Z,9.68
2023-10-26T19:26:56.424Z,9.69
2023-10-26T19:29:13.325Z,9.71
2023-10-26T19:31:30.444Z,9.70
2023-10-26T19:33:47.508Z,9.70
2023-10-26T19:36:04.753Z,9.68
2023-10-26T19:38:21.872Z,9.63
2023-10-26T19:40:46.417Z,9.61
2023-10-26T19:43:03.338Z,9.58
2023-10-26T19:45:25.516Z,9.57
2023-10-26T19:47:42.519Z,9.57
2023-10-26T19:49:59.482Z,9.57
2023-10-26T19:52:16.924Z,9.57
2023-10-26T19:54:34.049Z,9.59
2023-10-26T19:56:51.157Z,9.57
2023-10-26T19:59:09.147Z,9.56
2023-10-26T20:01:28.914Z,9.53
2023-10-26T20:03:46.377Z,9.53
2023-10-26T20:06:05.043Z,9.53
2023-10-26T20:08:22.165Z,9.53
2023-10-26T20:10:40.533Z,9.54
2023-10-26T20:12:57.614Z,9.53
2023-10-26T20:15:14.664Z,9.51
2023-10-26T20:17:32.004Z,9.53
2023-10-26T20:19:49.064Z,9.51
2023-10-26T20:22:06.069Z,9.49
2023-10-26T20:24:23.459Z,9.47
2023-10-26T20:26:40.768Z,9.47
2023-10-26T20:28:57.730Z,9.46
2023-10-26T20:31:16.458Z,9.44
2023-10-26T20:33:33.672Z,9.43
2023-10-26T20:35:50.641Z,9.42
2023-10-26T20:38:07.735Z,9.40
2023-10-26T20:40:24.779Z,9.39
2023-10-26T20:42:44.361Z,9.39
2023-10-26T20:45:01.598Z,9.36
2023-10-26T20:47:18.582Z,9.33
2023-10-26T20:49:35.599Z,9.35
2023-10-26T20:51:52.614Z,9.33
2023-10-26T20:54:12.646Z,9.30
2023-10-26T20:56:29.524Z,9.29
2023-10-26T20:58:46.461Z,9.29
2023-10-26T21:01:03.339Z,9.25
2023-10-26T21:03:20.309Z,9.25
2023-10-26T21:05:43.435Z,9.22
2023-10-26T21:08:00.552Z,9.23
2023-10-26T21:10:17.603Z,9.23
2023-10-26T21:12:34.587Z,9.22
2023-10-26T21:14:51.592Z,9.22
2023-10-26T21:17:08.572Z,9.21
2023-10-26T21:19:25.526Z,9.22
2023-10-26T21:21:42.477Z,9.20
2023-10-26T21:23:59.407Z,9.21
2023-10-26T21:26:17.346Z,9.23
2023-10-26T21:28:34.347Z,9.22
2023-10-26T21:30:51.308Z,9.22
2023-10-26T21:33:08.264Z,9.21
2023-10-26T21:35:25.248Z,9.19
2023-10-26T21:37:42.172Z,9.17
2023-10-26T21:39:59.590Z,9.13
2023-10-26T21:42:16.720Z,9.13
2023-10-26T21:44:33.628Z,9.09
2023-10-26T21:46:50.719Z,9.09
2023-10-26T21:49:07.739Z,9.06
2023-10-26T21:51:24.788Z,9.06
2023-10-26T21:53:41.763Z,9.05
2023-10-26T21:55:59.161Z,9.05
2023-10-26T21:58:16.226Z,9.03
2023-10-26T22:00:35.407Z,9.03
2023-10-26T22:02:53.497Z,9.01
2023-10-26T22:05:10.496Z,9.02
2023-10-26T22:07:27.401Z,9.00
2023-10-26T22:09:54.540Z,9.00
2023-10-26T22:12:12.303Z,8.98
2023-10-26T22:14:29.266Z,8.97
2023-10-26T22:16:46.351Z,8.97
2023-10-26T22:19:03.285Z,8.95
2023-10-26T22:21:20.208Z,8.96
2023-10-26T22:23:37.126Z,8.96
2023-10-26T22:25:53.982Z,8.96
2023-10-26T22:28:10.899Z,8.94
2023-10-26T22:30:28.360Z,8.94
2023-10-26T22:32:45.446Z,8.94
2023-10-26T22:35:02.533Z,8.93
2023-10-26T22:37:23.702Z,8.93
2023-10-26T22:39:40.610Z,8.93
2023-10-26T22:41:57.527Z,8.93
2023-10-26T22:44:14.419Z,8.92
2023-10-26T22:46:34.576Z,8.95
2023-10-26T22:48:51.728Z,8.94
2023-10-26T22:51:08.641Z,8.92
2023-10-26T22:53:25.513Z,8.93
2023-10-26T22:55:42.448Z,8.93
2023-10-26T22:57:59.769Z,8.90
2023-10-26T23:00:16.641Z,8.90
2023-10-26T23:02:33.600Z,8.91
2023-10-26T23:04:50.618Z,8.92
2023-10-26T23:07:07.567Z,8.93
2023-10-26T23:09:24.497Z,8.91
2023-10-26T23:11:41.495Z,8.89
2023-10-26T23:13:58.454Z,8.89
2023-10-26T23:16:15.542Z,8.86
2023-10-26T23:18:32.632Z,8.84
2023-10-26T23:20:49.603Z,8.82
2023-10-26T23:23:06.685Z,8.82
2023-10-26T23:25:24.101Z,8.81
2023-10-26T23:27:41.019Z,8.82
2023-10-26T23:29:57.965Z,8.81
2023-10-26T23:32:14.922Z,8.79
2023-10-26T23:34:32.391Z,8.80
2023-10-26T23:36:49.348Z,8.78
2023-10-26T23:39:06.305Z,8.80
2023-10-26T23:41:23.179Z,8.81
2023-10-26T23:43:40.589Z,8.80
2023-10-26T23:45:57.556Z,8.82
2023-10-26T23:48:14.973Z,8.82
2023-10-26T23:50:31.867Z,8.82
2023-10-26T23:52:48.904Z,8.83
2023-10-26T23:55:05.909Z,8.83
2023-10-26T23:57:22.836Z,8.84
2023-10-26T23:59:39.818Z,8.85
